Nære METAR værraporter

   
ENGM - Oslo
Oppdatert: 21-03-2019 16:20
Klart  
Klart  
   Vind: VNV 3.1 m/s
Vind: VNV 3.1 m/s
Temperatur: 11°C
Duggpunkt: -4°C
Luftfuktighet: 35%
Barometer: 1016 hPa
Sikt: More than 10 km
Detaljer skyer: Klart
ENGM 211520Z 29006KT 230V360 CAVOK 11/M04 Q1016 NOSIG
ENTO - Sandefjord
Oppdatert: 21-03-2019 16:20
Noen skyer  
Noen skyer  
   Vind: VEST 6.7 m/s
Vind: VEST 6.7 m/s
Temperatur: 15°C
Duggpunkt: 3°C
Luftfuktighet: 45%
Barometer: 1018 hPa
Skyer: Noen skyer
Sikt: More than 10 km
Detaljer skyer: Noen skyer 1859.3 m
ENTO 211520Z 27013KT 240V310 9999 FEW061 15/03 Q1018 NOSIG
ENNO - Notodden
Oppdatert: 21-03-2019 15:50
Noen skyer  
Noen skyer  
   Vind: VEST 4.6 m/s
Vind: VEST 4.6 m/s
Temperatur: 13°C
Duggpunkt: 0°C
Luftfuktighet: 41%
Barometer: 1019 hPa
Skyer: Noen skyer
Sikt: More than 10 km
Detaljer skyer: Noen skyer 2011.7 m
ENNO 211450Z 28009KT 9999 FEW066 13/M00 Q1019
ENRY - Rygge
Oppdatert: 21-03-2019 16:20
Klart  
Klart  
   Vind: VSV 3.1 m/s
Vind: VSV 3.1 m/s
Temperatur: 15°C
Duggpunkt: 5°C
Luftfuktighet: 51%
Barometer: 1018 hPa
Sikt: More than 10 km
Detaljer skyer: Klart
ENRY 211520Z 24006KT 200V280 CAVOK 15/05 Q1018
ENSN - Skien
Oppdatert: 09-11-2015 09:50
Oppdatert, se klokkeslett
Klart  
Klart  
   Vind: SSV 5.1 m/s<br />Gust to 5.1 m/s
Vind: SSV 5.1 m/s
Gust to 5.1 m/s
Temperatur: 7°C
Wind Chill: 4°C
Duggpunkt: 3°C
Luftfuktighet: 76%
Barometer: 1000 hPa
Sikt: More than 10 km
Detaljer skyer: Klart
ENSN 090850Z 20010G22KT 150V240 CAVOK 07/03 Q1000
ENFG - Fagernes
Oppdatert: 22-04-2018 10:50
Oppdatert, se klokkeslett
Klart  
Klart  
   Vind: Sør 3.6 m/s
Vind: Sør 3.6 m/s
Temperatur: 6°C
Wind Chill: 3°C
Duggpunkt: -3°C
Luftfuktighet: 53%
Barometer: 1014 hPa
Sikt: More than 10 km
Detaljer skyer: Klart
ENFG 220850Z 19007KT CAVOK 06/M03 Q1014

Script utviklet av  Saratoga-weather.org Tilpasset for tamplaten av  Weerstation Leuven

Du finner min vær info også på:

European Weather Network

Weather Underground

European Weather Network